19°C
Woerden, The Nederlands
Taal:  Nederlands
Updated20/06/2019 15:40 
 
WeerStation Woerden Historical Data
 
Daily Summary for June 20, 2019 Units:  Metric    English   Both
Daily Weekly Monthly Yearly Custom
  Current: High: Low: Average:
Temperature: 18.8 °C 19.5 °C 15.7 °C 17 °C
Dew Point: 12.9 °C 15.1 °C 12.6 °C 13.9 °C
Humidity: 69% 86% 68% 82%
Wind Speed: 20.4km/h 31.5km/h 0.0km/h 14.3km/h
Wind Gust: 13.8km/h 23.7km/h - -
WindNW - - SW
Pressure: 1011.6 hPa 1011.6 hPa 1007.0 hPa -
Precipitation: 0.6 mm      
Historical Graphs
 
 
Tabular Data for June 20, 2019
Time Temperature Dew Point Pressure Wind Wind Speed Wind Gust Humidity Rainfall Rate (Hourly) solar
00:04 16.7 °C 14.3 °C 1007.0 hPa WNW 13.0 km/h 9.7 km/h 86% 0.0 mm 0.00 W/m2
00:07 16.6 °C 14.3 °C 1007.0 hPa West 14.8 km/h 7.9 km/h 86% 0.0 mm 0.00 W/m2
00:14 16.5 °C 14.2 °C 1007.0 hPa WNW 5.6 km/h 4.8 km/h 86% 0.0 mm 0.00 W/m2
00:19 16.3 °C 13.9 °C 1007.1 hPa West 11.1 km/h 9.8 km/h 86% 0.0 mm 0.00 W/m2
00:24 16.3 °C 13.9 °C 1007.0 hPa West 9.7 km/h 6.3 km/h 86% 0.0 mm 0.00 W/m2
00:29 16.2 °C 13.9 °C 1007.1 hPa West 11.1 km/h 6.8 km/h 86% 0.0 mm 0.00 W/m2
00:34 16.2 °C 13.8 °C 1007.1 hPa West 9.3 km/h 3.2 km/h 86% 0.0 mm 0.00 W/m2
00:39 16.1 °C 13.8 °C 1007.2 hPa West 9.3 km/h 7.1 km/h 86% 0.0 mm 0.00 W/m2
00:44 16.0 °C 13.7 °C 1007.3 hPa WSW 7.4 km/h 6.0 km/h 86% 0.0 mm 0.00 W/m2
00:49 16.0 °C 13.7 °C 1007.4 hPa WSW 11.3 km/h 6.8 km/h 86% 0.0 mm 0.00 W/m2
00:54 15.9 °C 13.6 °C 1007.4 hPa WSW 13.0 km/h 8.5 km/h 86% 0.0 mm 0.00 W/m2
00:59 15.9 °C 13.6 °C 1007.3 hPa West 11.1 km/h 4.5 km/h 86% 0.0 mm 0.00 W/m2
01:04 15.9 °C 13.6 °C 1007.2 hPa West 9.3 km/h 3.5 km/h 86% 0.0 mm 0.00 W/m2
01:09 16.0 °C 13.7 °C 1007.3 hPa West 9.3 km/h 4.8 km/h 86% 0.0 mm 0.00 W/m2
01:14 16.0 °C 13.7 °C 1007.3 hPa West 9.3 km/h 5.1 km/h 86% 0.0 mm 0.00 W/m2
01:19 16.0 °C 13.7 °C 1007.2 hPa West 6.4 km/h 4.7 km/h 86% 0.0 mm 0.00 W/m2
01:24 16.0 °C 13.7 °C 1007.2 hPa West 5.6 km/h 0.8 km/h 86% 0.0 mm 0.00 W/m2
01:29 16.1 °C 13.7 °C 1007.2 hPa West 5.6 km/h 3.1 km/h 86% 0.0 mm 0.00 W/m2
01:34 16.1 °C 13.7 °C 1007.3 hPa West 4.8 km/h 2.3 km/h 86% 0.0 mm 0.00 W/m2
01:39 16.1 °C 13.7 °C 1007.2 hPa WSW 5.6 km/h 5.0 km/h 86% 0.0 mm 0.00 W/m2
01:44 16.0 °C 13.7 °C 1007.3 hPa WSW 5.6 km/h 1.6 km/h 86% 0.0 mm 0.00 W/m2
01:49 16.0 °C 13.7 °C 1007.3 hPa WSW 5.6 km/h 0.2 km/h 86% 0.0 mm 0.00 W/m2
01:54 16.0 °C 13.7 °C 1007.4 hPa WSW 4.8 km/h 1.8 km/h 86% 0.0 mm 0.00 W/m2
01:59 15.9 °C 13.6 °C 1007.5 hPa WSW 3.7 km/h 1.8 km/h 86% 0.0 mm 0.00 W/m2
02:04 15.9 °C 13.6 °C 1007.5 hPa WSW 3.7 km/h 0.5 km/h 86% 0.0 mm 0.00 W/m2
02:09 16.0 °C 13.7 °C 1007.6 hPa WSW 1.9 km/h 0.3 km/h 86% 0.0 mm 0.00 W/m2
02:14 16.0 °C 13.7 °C 1007.6 hPa WSW 1.9 km/h 1.1 km/h 86% 0.0 mm 0.00 W/m2
02:19 16.0 °C 13.7 °C 1007.6 hPa WSW 5.6 km/h 4.0 km/h 86% 0.0 mm 0.00 W/m2
02:24 15.9 °C 13.6 °C 1007.6 hPa West 14.8 km/h 9.3 km/h 86% 0.0 mm 0.00 W/m2
02:29 16.0 °C 13.7 °C 1007.5 hPa West 11.1 km/h 5.1 km/h 86% 0.0 mm 0.00 W/m2
02:34 16.0 °C 13.7 °C 1007.6 hPa WSW 11.1 km/h 6.1 km/h 86% 0.2 mm 0.00 W/m2
02:39 16.0 °C 13.7 °C 1007.7 hPa WSW 7.4 km/h 2.6 km/h 86% 0.2 mm 0.00 W/m2
02:44 16.1 °C 13.7 °C 1007.8 hPa WSW 5.6 km/h 3.2 km/h 86% 0.2 mm 0.00 W/m2
02:49 16.1 °C 13.7 °C 1007.7 hPa SW 11.1 km/h 8.0 km/h 86% 0.2 mm 0.00 W/m2
02:54 16.0 °C 13.7 °C 1007.6 hPa WSW 7.4 km/h 4.5 km/h 86% 0.2 mm 0.00 W/m2
02:59 15.9 °C 13.6 °C 1007.6 hPa WSW 7.4 km/h 3.2 km/h 86% 0.2 mm 0.00 W/m2
03:04 15.9 °C 13.6 °C 1007.6 hPa WSW 7.4 km/h 6.4 km/h 86% 0.2 mm 0.00 W/m2
03:09 15.9 °C 13.6 °C 1007.6 hPa WSW 7.4 km/h 5.8 km/h 86% 0.2 mm 0.00 W/m2
03:14 15.9 °C 13.6 °C 1007.6 hPa WSW 7.4 km/h 2.9 km/h 86% 0.2 mm 0.00 W/m2
03:19 15.8 °C 13.5 °C 1007.6 hPa WSW 7.4 km/h 4.2 km/h 86% 0.2 mm 0.00 W/m2
03:24 15.8 °C 13.4 °C 1007.6 hPa SW 9.3 km/h 2.7 km/h 86% 0.2 mm 0.00 W/m2
03:29 15.8 °C 13.4 °C 1007.6 hPa WSW 11.1 km/h 3.1 km/h 86% 0.2 mm 0.00 W/m2
03:34 15.8 °C 13.4 °C 1007.6 hPa WSW 5.6 km/h 3.7 km/h 86% 0.0 mm 0.00 W/m2
03:39 15.7 °C 13.4 °C 1007.7 hPa WSW 5.6 km/h 0.8 km/h 86% 0.0 mm 0.00 W/m2
03:44 15.8 °C 13.4 °C 1007.6 hPa WSW 6.4 km/h 4.7 km/h 86% 0.2 mm 0.00 W/m2
03:49 15.7 °C 13.4 °C 1007.6 hPa WSW 5.6 km/h 3.2 km/h 86% 0.2 mm 0.00 W/m2
03:54 15.8 °C 13.4 °C 1007.6 hPa WSW 4.8 km/h 3.1 km/h 86% 0.2 mm 0.00 W/m2
03:59 15.8 °C 13.4 °C 1007.6 hPa WSW 6.4 km/h 3.4 km/h 86% 0.2 mm 0.00 W/m2
04:04 15.8 °C 13.4 °C 1007.6 hPa WSW 5.6 km/h 1.8 km/h 86% 0.2 mm 0.00 W/m2
04:09 15.8 °C 13.4 °C 1007.6 hPa WSW 5.6 km/h 1.4 km/h 86% 0.2 mm 0.00 W/m2
04:14 15.8 °C 13.4 °C 1007.6 hPa WSW 6.4 km/h 4.5 km/h 86% 0.2 mm 0.00 W/m2
04:19 15.8 °C 13.4 °C 1007.7 hPa WSW 5.6 km/h 3.4 km/h 86% 0.2 mm 0.00 W/m2
04:24 15.8 °C 13.5 °C 1007.8 hPa WSW 3.7 km/h 1.1 km/h 86% 0.2 mm 0.00 W/m2
04:29 15.8 °C 13.5 °C 1007.8 hPa WSW 5.6 km/h 2.7 km/h 86% 0.2 mm 0.00 W/m2
04:34 15.8 °C 13.5 °C 1007.9 hPa WSW 4.8 km/h 2.4 km/h 86% 0.2 mm 0.00 W/m2
04:39 15.8 °C 13.4 °C 1007.9 hPa WSW 5.6 km/h 3.2 km/h 86% 0.2 mm 0.00 W/m2
04:44 15.8 °C 13.5 °C 1008.0 hPa WSW 5.6 km/h 1.3 km/h 86% 0.0 mm 0.00 W/m2
04:49 15.8 °C 13.5 °C 1008.0 hPa WSW 5.6 km/h 1.1 km/h 86% 0.0 mm 0.00 W/m2
04:54 15.9 °C 13.6 °C 1008.0 hPa WSW 5.6 km/h 2.1 km/h 86% 0.0 mm 0.00 W/m2
04:59 15.9 °C 13.6 °C 1008.0 hPa WSW 1.9 km/h 0.8 km/h 86% 0.0 mm 0.00 W/m2
05:04 15.9 °C 13.6 °C 1008.0 hPa WSW 5.6 km/h 1.0 km/h 86% 0.0 mm 0.00 W/m2
05:09 16.0 °C 13.7 °C 1008.0 hPa WSW 3.7 km/h 0.2 km/h 86% 0.0 mm 0.00 W/m2
05:14 16.0 °C 13.7 °C 1007.9 hPa Calm   0.5 km/h 86% 0.0 mm 0.00 W/m2
05:19 16.1 °C 13.7 °C 1008.1 hPa WSW 5.6 km/h 3.1 km/h 86% 0.0 mm 0.00 W/m2
05:24 16.1 °C 13.7 °C 1008.1 hPa SW 5.6 km/h 3.7 km/h 86% 0.0 mm 0.00 W/m2
05:29 16.1 °C 13.8 °C 1008.0 hPa SW 5.6 km/h 1.4 km/h 86% 0.0 mm 5.00 W/m2
05:34 16.1 °C 13.8 °C 1008.1 hPa SW 3.7 km/h   86% 0.0 mm 7.00 W/m2
05:39 16.2 °C 13.8 °C 1008.0 hPa SW 5.6 km/h 2.4 km/h 86% 0.0 mm 5.00 W/m2
05:44 16.2 °C 13.8 °C 1008.0 hPa SW 7.4 km/h 4.8 km/h 86% 0.0 mm 0.00 W/m2
05:49 16.2 °C 13.9 °C 1008.1 hPa SW 9.3 km/h 4.7 km/h 86% 0.0 mm 5.00 W/m2
05:54 16.2 °C 13.9 °C 1008.0 hPa SW 9.3 km/h 3.9 km/h 86% 0.0 mm 7.00 W/m2
05:59 16.3 °C 13.9 °C 1008.1 hPa SW 5.6 km/h 2.4 km/h 86% 0.0 mm 11.00 W/m2
06:04 16.3 °C 13.8 °C 1008.1 hPa SW 5.6 km/h 1.4 km/h 85% 0.0 mm 14.00 W/m2
06:09 16.3 °C 13.8 °C 1008.1 hPa SW 5.6 km/h 1.3 km/h 85% 0.0 mm 25.00 W/m2
06:14 16.3 °C 13.8 °C 1008.1 hPa SW 5.6 km/h 1.8 km/h 85% 0.0 mm 26.00 W/m2
06:19 16.3 °C 13.8 °C 1008.1 hPa SW 6.4 km/h 5.1 km/h 85% 0.0 mm 25.00 W/m2
06:24 16.3 °C 13.8 °C 1008.1 hPa SW 6.4 km/h 4.2 km/h 85% 0.0 mm 28.00 W/m2
06:29 16.4 °C 13.9 °C 1008.2 hPa SW 6.4 km/h 2.7 km/h 85% 0.0 mm 28.00 W/m2
06:34 16.4 °C 13.9 °C 1008.1 hPa SW 5.6 km/h 4.3 km/h 85% 0.0 mm 19.00 W/m2
06:39 16.4 °C 14.1 °C 1008.1 hPa SW 7.4 km/h 6.0 km/h 86% 0.0 mm 18.00 W/m2
06:44 16.5 °C 14.2 °C 1008.1 hPa SW 9.3 km/h 4.2 km/h 86% 0.0 mm 23.00 W/m2
06:49 16.5 °C 14.2 °C 1008.2 hPa SW 6.4 km/h 1.4 km/h 86% 0.0 mm 26.00 W/m2
06:54 16.6 °C 14.3 °C 1008.2 hPa SW 5.6 km/h 3.5 km/h 86% 0.0 mm 19.00 W/m2
06:59 16.7 °C 14.3 °C 1008.2 hPa SSW 7.4 km/h 4.7 km/h 86% 0.0 mm 19.00 W/m2
07:04 16.7 °C 14.2 °C 1008.5 hPa SSW 5.6 km/h 4.3 km/h 85% 0.0 mm 16.00 W/m2
07:09 16.7 °C 14.2 °C 1008.3 hPa SSW 11.1 km/h 6.0 km/h 85% 0.0 mm 18.00 W/m2
07:14 16.7 °C 14.2 °C 1008.4 hPa SW 7.4 km/h 5.3 km/h 85% 0.0 mm 32.00 W/m2
07:19 16.7 °C 14.1 °C 1008.4 hPa SW 9.7 km/h 8.0 km/h 85% 0.0 mm 56.00 W/m2
07:24 16.7 °C 14.2 °C 1008.4 hPa SW 6.4 km/h 2.7 km/h 85% 0.0 mm 91.00 W/m2
07:29 16.8 °C 14.3 °C 1008.4 hPa SW 6.4 km/h 4.7 km/h 85% 0.0 mm 72.00 W/m2
07:34 16.8 °C 14.5 °C 1008.5 hPa SW 11.1 km/h 8.5 km/h 86% 0.0 mm 32.00 W/m2
07:39 16.8 °C 14.5 °C 1008.4 hPa SW 9.7 km/h 6.9 km/h 86% 0.2 mm 37.00 W/m2
07:44 16.8 °C 14.5 °C 1008.4 hPa SW 9.3 km/h 5.5 km/h 86% 0.2 mm 33.00 W/m2
07:49 16.9 °C 14.6 °C 1008.4 hPa SW 11.3 km/h 5.3 km/h 86% 0.2 mm 42.00 W/m2
07:54 16.9 °C 14.6 °C 1008.5 hPa SSW 6.4 km/h 3.4 km/h 86% 0.2 mm 49.00 W/m2
07:59 17.0 °C 14.7 °C 1008.5 hPa SSW 9.3 km/h 6.4 km/h 86% 0.2 mm 54.00 W/m2
08:04 16.9 °C 14.6 °C 1008.6 hPa SW 16.1 km/h 10.6 km/h 86% 0.2 mm 146.00 W/m2
08:09 16.8 °C 14.4 °C 1008.5 hPa SW 16.7 km/h 10.3 km/h 86% 0.2 mm 88.00 W/m2
08:14 16.8 °C 14.5 °C 1008.6 hPa WSW 18.5 km/h 11.7 km/h 86% 0.2 mm 227.00 W/m2
08:19 16.9 °C 14.6 °C 1008.7 hPa SW 18.5 km/h 13.4 km/h 86% 0.2 mm 146.00 W/m2
08:24 16.9 °C 14.4 °C 1008.8 hPa SSW 16.7 km/h 11.1 km/h 85% 0.2 mm 135.00 W/m2
08:29 17.0 °C 14.4 °C 1008.7 hPa SW 14.8 km/h 10.0 km/h 85% 0.2 mm 216.00 W/m2
08:34 17.1 °C 14.5 °C 1008.8 hPa SW 18.5 km/h 10.9 km/h 85% 0.2 mm 127.00 W/m2
08:39 17.0 °C 14.3 °C 1008.8 hPa SSW 18.5 km/h 14.0 km/h 84% 0.0 mm 134.00 W/m2
08:44 16.9 °C 14.2 °C 1008.8 hPa SSW 19.3 km/h 15.1 km/h 84% 0.0 mm 169.00 W/m2
08:49 16.9 °C 14.2 °C 1008.9 hPa SSW 16.7 km/h 8.4 km/h 84% 0.0 mm 255.00 W/m2
08:54 17.1 °C 14.4 °C 1009.0 hPa SSW 14.8 km/h 11.9 km/h 84% 0.0 mm 243.00 W/m2
08:59 17.1 °C 14.4 °C 1008.9 hPa SSW 18.5 km/h 11.1 km/h 84% 0.0 mm 209.00 W/m2
09:04 17.2 °C 14.5 °C 1008.9 hPa South 17.7 km/h 10.1 km/h 84% 0.0 mm 404.00 W/m2
09:09 17.4 °C 14.5 °C 1009.0 hPa South 20.4 km/h 13.2 km/h 83% 0.0 mm 431.00 W/m2
09:14 17.3 °C 14.2 °C 1009.1 hPa SW 18.5 km/h 12.1 km/h 82% 0.0 mm 202.00 W/m2
09:19 17.2 °C 14.3 °C 1009.2 hPa SSE 19.3 km/h 11.7 km/h 83% 0.0 mm 188.00 W/m2
09:24 16.9 °C 14.1 °C 1009.2 hPa SSW 25.9 km/h 15.8 km/h 83% 0.0 mm 167.00 W/m2
09:29 16.9 °C 14.0 °C 1009.2 hPa SW 29.6 km/h 11.4 km/h 83% 0.0 mm 120.00 W/m2
09:34 16.8 °C 13.9 °C 1009.2 hPa SSE 18.5 km/h 12.7 km/h 83% 0.0 mm 174.00 W/m2
09:39 16.8 °C 13.9 °C 1009.3 hPa SSW 18.5 km/h 11.6 km/h 83% 0.0 mm 243.00 W/m2
09:44 16.8 °C 13.9 °C 1009.2 hPa South 18.5 km/h 9.8 km/h 83% 0.0 mm 257.00 W/m2
09:49 16.9 °C 13.8 °C 1009.3 hPa SSW 25.9 km/h 16.4 km/h 82% 0.0 mm 290.00 W/m2
09:54 16.8 °C 13.7 °C 1009.3 hPa South 25.9 km/h 16.4 km/h 82% 0.0 mm 227.00 W/m2
09:59 16.9 °C 14.1 °C 1009.3 hPa SSE 20.4 km/h 10.3 km/h 83% 0.0 mm 246.00 W/m2
10:04 16.9 °C 13.8 °C 1009.4 hPa SSW 22.2 km/h 10.5 km/h 82% 0.0 mm 250.00 W/m2
10:09 16.9 °C 13.8 °C 1009.3 hPa SSE 18.5 km/h 11.6 km/h 82% 0.0 mm 330.00 W/m2
10:14 17.2 °C 14.1 °C 1009.4 hPa SSW 16.7 km/h 12.1 km/h 82% 0.0 mm 276.00 W/m2
10:19 17.2 °C 13.9 °C 1009.4 hPa SW 22.2 km/h 13.5 km/h 81% 0.0 mm 241.00 W/m2
10:24 17.2 °C 13.9 °C 1009.5 hPa SSW 16.7 km/h 9.0 km/h 81% 0.0 mm 283.00 W/m2
10:29 17.2 °C 13.9 °C 1009.5 hPa SSW 20.4 km/h 12.9 km/h 81% 0.0 mm 186.00 W/m2
10:34 17.2 °C 13.9 °C 1009.5 hPa SW 22.2 km/h 13.5 km/h 81% 0.0 mm 146.00 W/m2
10:39 17.0 °C 13.7 °C 1009.6 hPa South 20.9 km/h 17.5 km/h 81% 0.0 mm 104.00 W/m2
10:44 16.8 °C 13.6 °C 1009.6 hPa SSW 25.9 km/h 15.8 km/h 81% 0.0 mm 102.00 W/m2
10:49 16.8 °C 13.7 °C 1009.6 hPa SSW 18.5 km/h 11.9 km/h 82% 0.0 mm 111.00 W/m2
10:54 16.8 °C 13.7 °C 1009.7 hPa SW 22.2 km/h 11.6 km/h 82% 0.0 mm 162.00 W/m2
10:59 16.7 °C 13.6 °C 1009.7 hPa SW 25.9 km/h 17.9 km/h 82% 0.0 mm 155.00 W/m2
11:04 16.7 °C 13.4 °C 1009.7 hPa SW 18.5 km/h 12.9 km/h 81% 0.0 mm 221.00 W/m2
11:09 16.8 °C 13.6 °C 1009.8 hPa South 18.5 km/h 11.1 km/h 81% 0.0 mm 251.00 W/m2
11:14 16.9 °C 13.6 °C 1009.8 hPa SW 20.4 km/h 15.0 km/h 81% 0.0 mm 355.00 W/m2
11:19 17.1 °C 13.8 °C 1009.7 hPa SW 14.5 km/h 11.3 km/h 81% 0.0 mm 432.00 W/m2
11:24 17.3 °C 14.0 °C 1009.8 hPa South 18.5 km/h 15.3 km/h 81% 0.0 mm 380.00 W/m2
11:29 17.3 °C 13.8 °C 1009.7 hPa South 22.2 km/h 15.8 km/h 80% 0.0 mm 318.00 W/m2
11:34 17.6 °C 14.1 °C 1009.8 hPa SSW 25.9 km/h 15.0 km/h 80% 0.0 mm 918.00 W/m2
11:39 18.0 °C 14.5 °C 1009.7 hPa South 18.5 km/h 13.2 km/h 80% 0.0 mm 276.00 W/m2
11:44 18.2 °C 14.4 °C 1009.8 hPa SSW 24.1 km/h 14.2 km/h 79% 0.0 mm 911.00 W/m2
11:49 18.4 °C 14.5 °C 1009.8 hPa South 20.9 km/h 13.7 km/h 78% 0.0 mm 411.00 W/m2
11:54 18.6 °C 14.4 °C 1009.8 hPa SSW 25.9 km/h 15.0 km/h 77% 0.0 mm 193.00 W/m2
11:59 18.2 °C 14.3 °C 1009.8 hPa SSW 18.5 km/h 13.7 km/h 78% 0.0 mm 288.00 W/m2
12:04 18.2 °C 14.3 °C 1009.9 hPa SSW 22.2 km/h 15.3 km/h 78% 0.0 mm 253.00 W/m2
12:09 18.1 °C 14.4 °C 1009.9 hPa SSE 16.7 km/h 8.4 km/h 79% 0.0 mm 283.00 W/m2
12:14 18.3 °C 14.6 °C 1009.9 hPa SW 24.1 km/h 12.9 km/h 79% 0.0 mm 292.00 W/m2
12:19 18.4 °C 14.5 °C 1010.0 hPa SW 29.6 km/h 19.8 km/h 78% 0.0 mm 262.00 W/m2
12:24 18.2 °C 14.4 °C 1010.1 hPa SSW 24.1 km/h 17.1 km/h 79% 0.0 mm 362.00 W/m2
12:29 18.2 °C 14.7 °C 1010.2 hPa WSW 24.1 km/h 13.2 km/h 80% 0.0 mm 387.00 W/m2
12:34 18.5 °C 14.8 °C 1010.1 hPa WSW 22.2 km/h 16.9 km/h 79% 0.0 mm 457.00 W/m2
12:39 18.5 °C 14.4 °C 1010.2 hPa SW 24.1 km/h 20.9 km/h 77% 0.0 mm 958.00 W/m2
12:44 18.8 °C 14.7 °C 1010.2 hPa SW 24.1 km/h 10.3 km/h 77% 0.0 mm 981.00 W/m2
12:49 18.8 °C 14.7 °C 1010.3 hPa West 19.3 km/h 9.7 km/h 77% 0.0 mm 1048.00 W/m2
12:54 18.8 °C 14.5 °C 1010.3 hPa West 18.5 km/h 10.0 km/h 76% 0.0 mm 376.00 W/m2
12:59 19.2 °C 15.1 °C 1010.4 hPa SW 18.5 km/h 10.5 km/h 77% 0.0 mm 1090.00 W/m2
13:04 19.2 °C 14.6 °C 1010.5 hPa South 27.8 km/h 15.9 km/h 75% 0.0 mm 455.00 W/m2
13:09 19.1 °C 14.7 °C 1010.6 hPa WSW 22.2 km/h 16.3 km/h 76% 0.0 mm 617.00 W/m2
13:14 19.1 °C 14.8 °C 1010.6 hPa SSW 22.2 km/h 13.7 km/h 76% 0.0 mm 422.00 W/m2
13:19 19.3 °C 14.9 °C 1010.5 hPa SW 16.7 km/h 10.5 km/h 76% 0.0 mm 986.00 W/m2
13:24 19.4 °C 14.7 °C 1010.5 hPa WSW 24.1 km/h 13.0 km/h 74% 0.0 mm 381.00 W/m2
13:29 19.4 °C 14.8 °C 1010.6 hPa SW 20.4 km/h 13.0 km/h 75% 0.0 mm 1088.00 W/m2
13:34 19.5 °C 14.9 °C 1010.7 hPa SSW 24.1 km/h 15.4 km/h 75% 0.0 mm 1072.00 W/m2
13:39 19.5 °C 14.9 °C 1010.7 hPa WSW 27.8 km/h 12.6 km/h 75% 0.0 mm 1100.00 W/m2
13:44 18.9 °C 14.2 °C 1010.8 hPa WSW 31.5 km/h 23.7 km/h 74% 0.0 mm 237.00 W/m2
13:49 18.9 °C 14.4 °C 1010.8 hPa WSW 31.5 km/h 16.7 km/h 75% 0.0 mm 995.00 W/m2
13:54 19.3 °C 14.6 °C 1010.8 hPa West 24.1 km/h 13.4 km/h 74% 0.0 mm 1086.00 W/m2
13:59 19.0 °C 14.3 °C 1010.9 hPa WSW 22.2 km/h 17.4 km/h 74% 0.0 mm 311.00 W/m2
14:04 18.7 °C 14.2 °C 1010.9 hPa WSW 25.9 km/h 14.5 km/h 75% 0.0 mm 1002.00 W/m2
14:09 19.1 °C 14.4 °C 1011.0 hPa West 24.1 km/h 16.9 km/h 74% 0.0 mm 1109.00 W/m2
14:14 19.0 °C 14.3 °C 1011.0 hPa West 24.1 km/h 18.2 km/h 74% 0.0 mm 304.00 W/m2
14:19 18.8 °C 14.3 °C 1011.1 hPa West 24.1 km/h 18.3 km/h 75% 0.0 mm 359.00 W/m2
14:24 18.6 °C 14.1 °C 1011.2 hPa West 20.4 km/h 13.4 km/h 75% 0.0 mm 624.00 W/m2
14:29 18.5 °C 13.8 °C 1011.2 hPa West 24.1 km/h 19.3 km/h 74% 0.0 mm 367.00 W/m2
14:34 18.6 °C 14.3 °C 1011.2 hPa WSW 20.9 km/h 16.6 km/h 76% 0.0 mm 457.00 W/m2
14:39 18.4 °C 13.3 °C 1011.2 hPa WSW 27.8 km/h 22.8 km/h 72% 0.0 mm 441.00 W/m2
14:44 18.6 °C 13.8 °C 1011.3 hPa West 22.2 km/h 15.1 km/h 74% 0.0 mm 320.00 W/m2
14:49 18.6 °C 13.4 °C 1011.3 hPa West 25.9 km/h 17.9 km/h 72% 0.0 mm 343.00 W/m2
14:54 18.6 °C 13.4 °C 1011.3 hPa WNW 20.4 km/h 7.9 km/h 72% 0.0 mm 916.00 W/m2
14:59 18.6 °C 12.6 °C 1011.3 hPa WSW 31.5 km/h 23.5 km/h 68% 0.0 mm 882.00 W/m2
15:04 18.7 °C 12.9 °C 1011.4 hPa West 24.1 km/h 14.3 km/h 69% 0.0 mm 875.00 W/m2
15:09 18.6 °C 12.8 °C 1011.4 hPa West 24.1 km/h 13.0 km/h 69% 0.0 mm 860.00 W/m2
15:14 18.6 °C 13.2 °C 1011.4 hPa WNW 27.8 km/h 15.3 km/h 71% 0.0 mm 861.00 W/m2
15:19 18.6 °C 13.0 °C 1011.5 hPa WNW 24.1 km/h 15.4 km/h 70% 0.0 mm 830.00 W/m2
15:24 18.7 °C 13.3 °C 1011.4 hPa West 19.3 km/h 13.5 km/h 71% 0.0 mm 842.00 W/m2
15:29 18.6 °C 13.2 °C 1011.6 hPa NW 24.1 km/h 10.8 km/h 71% 0.0 mm 814.00 W/m2
15:34 18.6 °C 13.1 °C 1011.5 hPa WSW 19.3 km/h 16.7 km/h 70% 0.0 mm 823.00 W/m2
15:39 18.7 °C 13.3 °C 1011.6 hPa WNW 14.8 km/h 11.9 km/h 71% 0.0 mm 812.00 W/m2
15:44 18.8 °C 12.9 °C 1011.6 hPa NW 20.4 km/h 13.8 km/h 69% 0.0 mm 805.00 W/m2
Juneau County Weather
Compliments of Weather Underground - 2.5 mb